createdAt,value
2023-05-23T00:02:13.846Z,99924.63
2023-05-23T00:07:16.400Z,99914.38
2023-05-23T00:12:17.842Z,99906.53
2023-05-23T00:17:19.748Z,99906.19
2023-05-23T00:22:21.970Z,99907.84
2023-05-23T00:27:23.985Z,99904.69
2023-05-23T00:32:25.477Z,99906.19
2023-05-23T00:37:26.956Z,99901.25
2023-05-23T00:42:28.597Z,99889.97
2023-05-23T00:47:30.130Z,99899.50
2023-05-23T00:52:31.630Z,99889.91
2023-05-23T00:57:39.654Z,99892.94
2023-05-23T01:02:47.867Z,99883.59
2023-05-23T01:07:51.184Z,99883.59
2023-05-23T01:12:58.426Z,99890.84
2023-05-23T01:18:10.060Z,99881.19
2023-05-23T01:23:19.366Z,99883.91
2023-05-23T01:28:23.206Z,99888.59
2023-05-23T01:33:25.866Z,99880.50
2023-05-23T01:38:27.316Z,99885.81
2023-05-23T01:43:28.918Z,99882.38
2023-05-23T01:48:32.098Z,99877.97
2023-05-23T01:53:35.450Z,99867.72
2023-05-23T01:58:37.040Z,99863.53
2023-05-23T02:03:38.652Z,99865.22
2023-05-23T02:08:40.239Z,99850.78
2023-05-23T02:13:41.710Z,99849.75
2023-05-23T02:18:46.152Z,99853.28
2023-05-23T02:23:47.720Z,99834.16
2023-05-23T02:28:49.168Z,99833.19
2023-05-23T02:33:50.691Z,99825.97
2023-05-23T02:38:52.474Z,99822.94
2023-05-23T02:43:53.979Z,99833.00
2023-05-23T02:48:55.581Z,99824.72
2023-05-23T02:53:57.069Z,99826.41
2023-05-23T02:58:58.517Z,99824.72
2023-05-23T03:04:00.008Z,99813.31
2023-05-23T03:09:01.698Z,99810.34
2023-05-23T03:14:03.256Z,99801.50
2023-05-23T03:19:04.953Z,99791.97
2023-05-23T03:24:06.919Z,99802.34
2023-05-23T03:29:10.931Z,99794.38
2023-05-23T03:34:13.143Z,99796.78
2023-05-23T03:39:14.708Z,99790.09
2023-05-23T03:44:16.252Z,99792.13
2023-05-23T03:49:17.809Z,99790.88
2023-05-23T03:54:19.337Z,99792.03
2023-05-23T03:59:20.939Z,99788.25
2023-05-23T04:04:23.028Z,99801.88
2023-05-23T04:09:24.585Z,99794.13
2023-05-23T04:14:26.109Z,99796.13
2023-05-23T04:19:27.795Z,99794.25
2023-05-23T04:24:29.283Z,99785.16
2023-05-23T04:29:31.734Z,99787.41
2023-05-23T04:34:38.024Z,99785.97
2023-05-23T04:39:39.659Z,99783.41
2023-05-23T04:44:41.802Z,99774.09
2023-05-23T04:49:43.514Z,99762.50
2023-05-23T04:54:48.860Z,99761.44
2023-05-23T04:59:50.702Z,99742.13
2023-05-23T05:04:52.162Z,99747.31
2023-05-23T05:09:53.644Z,99753.47
2023-05-23T05:14:55.082Z,99749.72
2023-05-23T05:19:56.899Z,99745.22
2023-05-23T05:24:58.376Z,99742.47
2023-05-23T05:30:04.805Z,99742.91
2023-05-23T05:35:07.857Z,99745.81
2023-05-23T05:40:09.968Z,99740.75
2023-05-23T05:45:11.670Z,99731.66
2023-05-23T05:50:13.144Z,99731.84
2023-05-23T05:55:14.759Z,99732.22
2023-05-23T06:00:18.867Z,99734.66
2023-05-23T06:05:20.348Z,99738.06
2023-05-23T06:10:21.804Z,99735.34
2023-05-23T06:15:23.717Z,99737.25
2023-05-23T06:20:25.785Z,99737.00
2023-05-23T06:25:27.490Z,99727.06
2023-05-23T06:30:29.588Z,99731.16
2023-05-23T06:35:31.386Z,99743.94
2023-05-23T06:40:32.839Z,99739.50
2023-05-23T06:45:35.893Z,99738.69
2023-05-23T06:50:37.462Z,99725.16
2023-05-23T06:55:38.945Z,99728.53
2023-05-23T07:00:40.576Z,99715.28
2023-05-23T07:05:42.217Z,99716.31
2023-05-23T07:10:43.789Z,99706.22
2023-05-23T07:15:45.757Z,99705.22
2023-05-23T07:20:47.223Z,99705.25
2023-05-23T07:26:01.127Z,99693.47
2023-05-23T07:31:03.717Z,99692.56
2023-05-23T07:36:05.238Z,99675.97
2023-05-23T07:41:11.420Z,99671.19
2023-05-23T07:46:13.649Z,99670.28
2023-05-23T07:51:15.705Z,99675.31
2023-05-23T07:56:17.192Z,99672.16
2023-05-23T08:01:18.777Z,99690.53
2023-05-23T08:06:20.245Z,99692.97
2023-05-23T08:11:21.730Z,99694.28
2023-05-23T08:16:23.234Z,99683.38
2023-05-23T08:21:24.773Z,99702.94
2023-05-23T08:26:27.952Z,99710.63
2023-05-23T08:31:30.196Z,99709.59
2023-05-23T08:36:36.456Z,99710.78
2023-05-23T08:41:39.493Z,99705.88
2023-05-23T08:46:46.854Z,99703.53
2023-05-23T08:51:52.238Z,99715.34
2023-05-23T08:56:53.799Z,99720.84
2023-05-23T09:01:57.124Z,99719.78
2023-05-23T09:06:59.204Z,99721.78
2023-05-23T09:12:01.024Z,99720.47
2023-05-23T09:17:05.534Z,99716.00
2023-05-23T09:22:07.040Z,99716.81
2023-05-23T09:27:08.812Z,99717.38
2023-05-23T09:32:17.234Z,99729.88
2023-05-23T09:37:19.416Z,99725.41
2023-05-23T09:42:25.252Z,99730.25
2023-05-23T09:47:29.870Z,99738.16
2023-05-23T09:52:41.101Z,99737.25
2023-05-23T09:57:45.390Z,99740.31
2023-05-23T10:03:15.057Z,99728.47
2023-05-23T10:08:26.700Z,99730.72
2023-05-23T10:13:28.933Z,99735.22
2023-05-23T10:18:36.763Z,99727.28
2023-05-23T10:23:39.305Z,99737.00
2023-05-23T10:28:42.138Z,99739.91
2023-05-23T10:33:50.811Z,99732.00
2023-05-23T10:39:16.964Z,99731.66
2023-05-23T10:44:27.283Z,99729.66
2023-05-23T10:49:39.995Z,99724.75
2023-05-23T10:54:43.192Z,99727.53
2023-05-23T10:59:47.056Z,99726.44
2023-05-23T11:05:25.049Z,99739.31
2023-05-23T11:10:28.948Z,99715.94
2023-05-23T11:15:42.724Z,99721.13
2023-05-23T11:20:45.172Z,99715.31
2023-05-23T11:25:52.189Z,99709.91
2023-05-23T11:30:53.709Z,99713.66
2023-05-23T11:35:55.422Z,99705.47
2023-05-23T11:40:56.981Z,99694.97
2023-05-23T11:46:07.542Z,99703.25
2023-05-23T11:51:09.116Z,99693.34
2023-05-23T11:56:10.676Z,99698.41
2023-05-23T12:01:13.807Z,99699.28
2023-05-23T12:06:16.615Z,99693.16
2023-05-23T12:11:18.913Z,99702.06
2023-05-23T12:16:21.251Z,99710.94
2023-05-23T12:21:26.306Z,99701.41
2023-05-23T12:26:27.759Z,99700.28
2023-05-23T12:31:29.404Z,99699.03
2023-05-23T12:36:32.529Z,99704.94
2023-05-23T12:41:34.066Z,99699.44
2023-05-23T12:46:35.735Z,99690.59
2023-05-23T12:51:37.269Z,99693.75
2023-05-23T12:56:39.811Z,99693.34
2023-05-23T13:01:41.697Z,99688.25
2023-05-23T13:06:43.372Z,99684.22
2023-05-23T13:11:44.894Z,99677.03
2023-05-23T13:16:46.608Z,99671.75
2023-05-23T13:21:49.533Z,99669.19
2023-05-23T13:26:51.491Z,99659.47
2023-05-23T13:31:53.798Z,99647.22
2023-05-23T13:36:55.678Z,99658.41
2023-05-23T13:41:57.188Z,99664.34
2023-05-23T13:47:12.810Z,99656.47
2023-05-23T13:52:14.987Z,99657.06
2023-05-23T13:57:16.953Z,99664.50
2023-05-23T14:02:18.566Z,99658.75
2023-05-23T14:07:20.025Z,99671.47
2023-05-23T14:12:21.453Z,99672.31
2023-05-23T14:17:23.118Z,99672.97
2023-05-23T14:22:24.675Z,99677.84
2023-05-23T14:27:27.018Z,99679.19
2023-05-23T14:32:28.639Z,99679.81
2023-05-23T14:37:30.245Z,99677.50
2023-05-23T14:42:31.709Z,99683.41
2023-05-23T14:47:33.246Z,99685.09
2023-05-23T14:52:34.755Z,99691.47
2023-05-23T14:57:36.248Z,99682.16
2023-05-23T15:02:37.821Z,99682.56
2023-05-23T15:07:39.342Z,99689.31
2023-05-23T15:12:41.196Z,99685.94
2023-05-23T15:17:42.679Z,99677.44
2023-05-23T15:22:44.166Z,99680.38
2023-05-23T15:27:45.812Z,99676.59
2023-05-23T15:32:47.776Z,99678.31
2023-05-23T15:37:49.447Z,99676.63
2023-05-23T15:42:51.222Z,99678.53
2023-05-23T15:47:52.722Z,99674.94
2023-05-23T15:52:54.236Z,99672.09
2023-05-23T15:57:55.715Z,99665.09
2023-05-23T16:02:57.237Z,99674.72
2023-05-23T16:07:58.751Z,99669.63
2023-05-23T16:13:00.528Z,99648.06
2023-05-23T16:18:03.151Z,99642.16
2023-05-23T16:23:04.839Z,99651.44
2023-05-23T16:28:06.572Z,99646.38
2023-05-23T16:33:08.067Z,99655.41
2023-05-23T16:38:09.767Z,99654.78
2023-05-23T16:43:12.232Z,99653.50
2023-05-23T16:48:13.821Z,99669.47
2023-05-23T16:53:15.667Z,99666.97
2023-05-23T16:58:20.066Z,99658.13
2023-05-23T17:03:22.852Z,99666.63
2023-05-23T17:08:24.351Z,99673.13
2023-05-23T17:13:26.046Z,99677.97
2023-05-23T17:18:27.533Z,99693.19
2023-05-23T17:23:29.068Z,99695.22
2023-05-23T17:28:30.516Z,99697.66
2023-05-23T17:33:31.978Z,99704.38
2023-05-23T17:38:33.493Z,99697.97
2023-05-23T17:43:34.965Z,99701.50
2023-05-23T17:48:46.917Z,99713.81
2023-05-23T17:53:53.501Z,99715.09
2023-05-23T17:58:54.991Z,99724.34
2023-05-23T18:03:56.572Z,99726.25
2023-05-23T18:08:58.106Z,99728.88
2023-05-23T18:13:59.570Z,99723.13
2023-05-23T18:19:01.148Z,99734.66
2023-05-23T18:24:04.026Z,99747.56
2023-05-23T18:29:05.539Z,99751.84
2023-05-23T18:34:07.144Z,99763.34
2023-05-23T18:39:09.843Z,99774.44
2023-05-23T18:44:11.359Z,99780.94
2023-05-23T18:49:12.798Z,99788.44
2023-05-23T18:54:14.389Z,99799.81
2023-05-23T18:59:16.918Z,99795.56
2023-05-23T19:04:18.486Z,99813.97
2023-05-23T19:09:20.066Z,99812.81
2023-05-23T19:14:21.873Z,99816.53
2023-05-23T19:19:23.360Z,99820.78
2023-05-23T19:24:24.894Z,99819.50
2023-05-23T19:29:26.738Z,99821.25
2023-05-23T19:34:28.423Z,99829.03
2023-05-23T19:39:29.867Z,99835.25
2023-05-23T19:44:31.518Z,99839.06
2023-05-23T19:49:33.063Z,99837.78
2023-05-23T19:54:34.709Z,99851.41
2023-05-23T19:59:36.277Z,99829.75
2023-05-23T20:04:37.741Z,99846.16
2023-05-23T20:09:39.196Z,99839.41
2023-05-23T20:14:40.980Z,99860.06
2023-05-23T20:19:42.693Z,99864.34
2023-05-23T20:24:44.159Z,99864.81
2023-05-23T20:29:45.651Z,99867.75
2023-05-23T20:34:47.141Z,99868.25
2023-05-23T20:39:48.658Z,99880.84
2023-05-23T20:44:50.135Z,99881.84
2023-05-23T20:49:51.608Z,99890.09
2023-05-23T20:54:54.497Z,99890.75
2023-05-23T20:59:56.235Z,99896.06
2023-05-23T21:04:57.675Z,99897.59
2023-05-23T21:09:59.425Z,99901.56
2023-05-23T21:15:01.068Z,99904.81
2023-05-23T21:20:02.698Z,99905.88
2023-05-23T21:25:05.009Z,99906.19
2023-05-23T21:30:07.286Z,99896.81
2023-05-23T21:35:09.086Z,99904.00
2023-05-23T21:40:10.768Z,99916.41
2023-05-23T21:45:12.284Z,99924.28
2023-05-23T21:50:13.721Z,99922.56
2023-05-23T21:55:15.269Z,99926.31
2023-05-23T22:00:18.894Z,99925.44
2023-05-23T22:05:20.627Z,99930.38
2023-05-23T22:10:22.180Z,99936.19
2023-05-23T22:15:23.667Z,99938.91
2023-05-23T22:20:25.372Z,99942.00
2023-05-23T22:25:27.251Z,99946.06
2023-05-23T22:30:28.950Z,99943.69
2023-05-23T22:35:31.106Z,99966.03
2023-05-23T22:40:32.969Z,99948.81
2023-05-23T22:45:40.488Z,99957.31
2023-05-23T22:50:42.189Z,99948.66
2023-05-23T22:55:43.859Z,99944.38
2023-05-23T23:00:45.672Z,99948.44
2023-05-23T23:05:47.387Z,99950.81
2023-05-23T23:10:48.902Z,99953.84
2023-05-23T23:15:50.640Z,99951.19
2023-05-23T23:20:52.249Z,99955.56
2023-05-23T23:25:53.759Z,99963.72
2023-05-23T23:30:55.418Z,99966.75
2023-05-23T23:35:57.691Z,99964.88
2023-05-23T23:40:59.155Z,99951.06
2023-05-23T23:46:00.762Z,99958.09
2023-05-23T23:51:02.422Z,99965.38
2023-05-23T23:56:04.006Z,99974.19
